Hauptseite
METAR-TAF:

METAR-TAF

Flughäfen :

Flughafen Odessa

Odessa, Ukraine

Breite: 46-26N, Länge: 030-46E, Höhe: 42 m

Beobachtung

Neuester Wetterbericht von vor 37 Minuten, um 00:30 UTC
Wind 8 kt aus Nord
Temperatur 11°C
Luftfeuchtigkeit 87%
Luftdruck 1017 hPa
Sichtweite: 5000 m
feuchter Dunst

METAR: UKOO 190030Z 01004MPS 5000 BR NSC 11/09 Q1017 R34/090060 TEMPO 0300 FG VV002

Zeit: 04:07 (01:07 UTC)

Prognose

Neuester Wetterbericht von vor 2 Stunden und 4 Minuten, um 23:03 UTC
Gültige Prognose vom 19 um 00 UTC bis 19 um 24 UTC
Wind 6 kt aus Nord
Sichtweite: 2100 m
Aufgelockert bewölkt in der Höhe von 700 ft
feuchter Dunst, Rauch
Zeitweise
vom 19 um 00 UTC bis 19 um 06 UTC
Sichtweite: 0300 m
in der Höhe von 200 ft
Nebel
Übergehend zu
vom 19 um 06 UTC bis 19 um 07 UTC
Sichtweite: 6000 m

TAF: UKOO 182303Z 1900/1924 36003MPS 2100 BR FU SCT007 TEMPO 1900/1906 0300 FG VV002 BECMG 1906/1907 6000 NSW

Wetterbeobachtungen und Prognosen von mehr als 4000 Flughäfen (METAR und TAF Bericht).

Die verfügbaren Stationen werden durch gelbe und rote Markierungen auf der Karte dargestellt.

Führen Sie die Maus auf sie, um den Namen der Station zu sehen.

Darauf klicken, um die Beobachtung von Wetterbeobachtungen und Prognosen zu sehen.

Um die Karte zu ändern : klicken Sie auf den grünen Tasten mit einem schwarzen Kreuz Zum Vergrößern, auf den grünen Button mit einem Gedankenstrich zu verkleinern, oder auf die grünen Pfeile für benachbarte Karten.


METAR-TAF: